Time;durP1;ratioP1;P1;durP2;ratioP2;P2;SDS_P1;SDS_P2;PMS_P1;PMS_P2;Temp;Humidity;BMP_temperature;BMP_pressure;BME280_temperature;BME280_humidity;BME280_pressure;Samples;Min_cycle;Max_cycle;Signal;HPM_P1;HPM_P2
2022/05/28 00:01:04;;;;;;;29.05;19.25;;;;;;;20.72;80.41;100487.47;4994828;28;20038;-86
2022/05/28 00:03:30;;;;;;;23.25;18.33;;;;;;;20.72;80.40;100479.25;4977273;28;20035;-88
2022/05/28 00:05:56;;;;;;;30.13;19.48;;;;;;;20.76;80.36;100488.78;4995391;28;20037;-86
2022/05/28 00:08:24;;;;;;;27.13;19.38;;;;;;;20.67;80.34;100473.53;4995375;28;20026;-86
2022/05/28 00:10:50;;;;;;;42.05;22.52;;;;;;;20.72;80.37;100486.59;4995124;28;20116;-87
2022/05/28 00:13:16;;;;;;;32.72;21.00;;;;;;;20.53;80.70;100458.88;4994680;28;20109;-87
2022/05/28 00:15:42;;;;;;;28.77;21.95;;;;;;;20.61;81.19;100480.59;4994898;28;20140;-87
2022/05/28 00:18:08;;;;;;;30.23;21.80;;;;;;;20.51;81.09;100463.69;4977068;28;20488;-87
2022/05/28 00:20:34;;;;;;;31.38;23.08;;;;;;;20.61;80.94;100475.13;4993938;28;20463;-87
2022/05/28 00:23:00;;;;;;;32.53;25.10;;;;;;;20.54;81.16;100455.09;4993866;28;20038;-86
2022/05/28 00:25:26;;;;;;;39.42;23.58;;;;;;;20.51;81.33;100455.50;4993876;28;20057;-87
2022/05/28 00:27:53;;;;;;;36.97;27.50;;;;;;;20.60;81.25;100467.13;4993988;28;20034;-87
2022/05/28 00:30:18;;;;;;;35.45;25.88;;;;;;;20.54;81.21;100457.84;4993978;28;20037;-86
2022/05/28 00:32:44;;;;;;;40.10;28.02;;;;;;;20.41;81.04;100443.16;4993935;28;20018;-86
2022/05/28 00:35:13;;;;;;;35.25;27.55;;;;;;;20.49;81.35;100440.31;4976778;28;20027;-86
2022/05/28 00:37:38;;;;;;;42.92;30.17;;;;;;;20.43;81.46;100431.00;4994443;28;20476;-86
2022/05/28 00:40:06;;;;;;;45.70;30.45;;;;;;;20.33;81.72;100426.91;4994160;28;20038;-86
2022/05/28 00:42:32;;;;;;;34.13;28.63;;;;;;;20.42;81.75;100447.59;4993714;28;20104;-88
2022/05/28 00:44:57;;;;;;;37.92;29.48;;;;;;;20.32;81.94;100439.72;4993610;28;20030;-87
2022/05/28 00:47:24;;;;;;;40.28;29.98;;;;;;;20.35;82.07;100439.31;4994089;28;20026;-87
2022/05/28 00:49:50;;;;;;;44.13;31.25;;;;;;;20.34;81.88;100426.69;4993604;28;20061;-87
2022/05/28 00:52:18;;;;;;;38.78;29.38;;;;;;;20.37;81.95;100436.38;4998834;28;20408;-87
2022/05/28 00:54:47;;;;;;;45.55;33.42;;;;;;;20.35;81.94;100431.13;4999075;28;20022;-88
2022/05/28 00:57:15;;;;;;;43.55;31.33;;;;;;;20.30;81.98;100422.69;4999301;28;20079;-88
2022/05/28 00:59:42;;;;;;;38.00;31.73;;;;;;;20.23;81.96;100413.53;4980290;28;20121;-88
2022/05/28 01:02:30;;;;;;;43.53;33.00;;;;;;;20.26;82.44;100426.81;4979806;28;20113;-87
2022/05/28 01:05:20;;;;;;;46.20;33.25;;;;;;;20.17;82.78;100418.91;4961533;28;20045;-87
2022/05/28 01:08:23;;;;;;;43.60;31.95;;;;;;;20.22;82.65;100414.53;4997137;28;20026;-88
2022/05/28 01:10:54;;;;;;;;;;;;;;;20.16;82.54;100412.59;4997427;28;20026;-85
2022/05/28 01:13:26;;;;;;;37.53;28.15;;;;;;;20.12;82.61;100408.53;4996814;28;19999;-88
2022/05/28 01:15:58;;;;;;;;;;;;;;;20.15;82.10;100412.78;4997909;28;20378;-86
2022/05/28 01:18:28;;;;;;;37.83;28.58;;;;;;;20.06;81.68;100398.38;4979326;28;20000;-87
2022/05/28 01:20:59;;;;;;;33.25;26.33;;;;;;;19.96;81.60;100384.22;4979729;28;20059;-86
2022/05/28 01:23:39;;;;;;;31.20;24.92;;;;;;;19.99;80.79;100389.28;4978878;28;20026;-86
2022/05/28 01:26:17;;;;;;;40.65;27.23;;;;;;;20.00;79.94;100396.41;4996242;28;20429;-86
2022/05/28 01:28:49;;;;;;;35.40;24.17;;;;;;;19.95;79.24;100398.88;4997252;28;20022;-88
2022/05/28 01:31:15;;;;;;;35.42;24.40;;;;;;;19.82;79.28;100374.13;4997504;28;20025;-86
2022/05/28 01:33:43;;;;;;;27.42;24.23;;;;;;;19.78;79.21;100373.69;4979225;28;20472;-86
2022/05/28 01:36:11;;;;;;;29.50;24.15;;;;;;;19.80;78.98;100387.13;4996581;28;20018;-88
2022/05/28 01:38:39;;;;;;;33.13;24.15;;;;;;;19.70;79.20;100381.13;4996422;28;20119;-86
2022/05/28 01:41:07;;;;;;;38.83;24.20;;;;;;;19.72;79.27;100385.38;4996717;28;20400;-89
2022/05/28 01:43:37;;;;;;;32.63;24.13;;;;;;;19.73;78.75;100394.38;4979162;28;20068;-88
2022/05/28 01:46:05;;;;;;;36.90;24.80;;;;;;;19.58;78.33;100377.19;4997086;28;20205;-86
2022/05/28 01:48:31;;;;;;;32.47;24.55;;;;;;;19.54;78.20;100371.25;4980028;28;20034;-87
2022/05/28 01:50:58;;;;;;;41.13;28.27;;;;;;;19.44;78.39;100365.25;4996898;28;20022;-86
2022/05/28 01:56:10;;;;;;;46.67;31.52;;;;;;;19.45;78.56;100378.69;4996077;28;20029;-87
2022/05/28 01:58:36;;;;;;;53.65;38.50;;;;;;;19.45;78.96;100384.13;4978579;28;20462;-88
2022/05/28 02:01:05;;;;;;;79.07;48.15;;;;;;;19.59;80.06;100389.78;4978256;28;20022;-87
2022/05/28 02:03:34;;;;;;;73.30;48.92;;;;;;;19.54;80.48;100393.06;4995302;28;20037;-88
2022/05/28 02:05:59;;;;;;;67.50;44.53;;;;;;;19.51;80.95;100388.84;4996262;28;20546;-88
2022/05/28 02:08:29;;;;;;;70.00;48.58;;;;;;;19.58;81.07;100394.41;4995761;28;20034;-88
2022/05/28 02:11:06;;;;;;;78.60;49.60;;;;;;;19.53;81.32;100385.94;4995817;28;20076;-86
2022/05/28 02:13:50;;;;;;;77.68;48.85;;;;;;;19.61;81.54;100398.63;4995641;28;20041;-86
2022/05/28 02:16:23;;;;;;;79.40;49.10;;;;;;;19.60;81.37;100397.78;4978022;28;20145;-86
2022/05/28 02:19:41;;;;;;;97.82;50.55;;;;;;;19.58;81.79;100399.84;4995450;28;20037;-87
2022/05/28 02:22:17;;;;;;;82.47;48.53;;;;;;;19.50;82.20;100389.91;4968107;28;20045;-87
2022/05/28 02:24:49;;;;;;;74.72;48.13;;;;;;;19.50;82.53;100387.16;4995230;28;20027;-87
2022/05/28 02:27:18;;;;;;;90.28;52.65;;;;;;;19.51;82.83;100388.84;4978078;28;20065;-87
2022/05/28 02:29:44;;;;;;;83.15;50.45;;;;;;;19.55;82.97;100398.34;4995458;28;20113;-87
2022/05/28 02:32:20;;;;;;;87.22;53.33;;;;;;;19.48;83.02;100375.56;4977623;28;20031;-87
2022/05/28 02:34:46;;;;;;;88.93;50.13;;;;;;;19.44;83.52;100382.47;4995407;28;20030;-87
2022/05/28 02:37:14;;;;;;;96.32;50.42;;;;;;;19.49;83.90;100385.47;4995586;28;20026;-87
2022/05/28 02:39:39;;;;;;;94.65;52.17;;;;;;;19.42;83.94;100378.22;4995255;28;20050;-87
2022/05/28 02:42:05;;;;;;;76.45;49.00;;;;;;;19.50;84.19;100391.78;4995233;28;20034;-87
2022/05/28 02:44:30;;;;;;;74.82;47.70;;;;;;;19.42;84.33;100387.25;4995389;28;20088;-87
2022/05/28 02:46:56;;;;;;;82.30;47.53;;;;;;;19.42;84.43;100386.38;4994886;28;20033;-87
2022/05/28 02:49:23;;;;;;;77.00;45.53;;;;;;;19.34;84.16;100384.59;4977443;28;20045;-86
2022/05/28 02:51:49;;;;;;;76.30;47.20;;;;;;;19.37;84.26;100391.53;4977727;28;20022;-87
2022/05/28 02:54:14;;;;;;;67.38;45.47;;;;;;;19.34;84.25;100387.31;4977980;28;20475;-87
2022/05/28 02:56:40;;;;;;;76.25;46.67;;;;;;;19.25;84.47;100388.44;4994706;28;20056;-87
2022/05/28 02:59:05;;;;;;;70.18;46.70;;;;;;;19.20;84.78;100388.16;4995178;28;20034;-87
2022/05/28 03:01:33;;;;;;;84.68;47.75;;;;;;;19.21;84.96;100397.16;4977635;28;20117;-87
2022/05/28 03:03:59;;;;;;;71.20;47.08;;;;;;;19.21;85.37;100402.59;4977594;28;20026;-87
2022/05/28 03:06:25;;;;;;;80.05;46.78;;;;;;;19.21;85.51;100387.09;4977270;28;20030;-87
2022/05/28 03:08:50;;;;;;;80.85;47.20;;;;;;;19.18;85.42;100376.56;4977750;28;20030;-87
2022/05/28 03:11:16;;;;;;;67.05;46.40;;;;;;;19.26;84.84;100386.56;4995246;28;20472;-86
2022/05/28 03:13:42;;;;;;;67.45;46.92;;;;;;;19.27;84.64;100390.97;4994350;28;20058;-87
2022/05/28 03:16:08;;;;;;;80.22;45.58;;;;;;;19.31;84.46;100406.78;4976087;28;20485;-87
2022/05/28 03:18:34;;;;;;;63.22;43.40;;;;;;;19.31;84.32;100395.88;4994058;28;20034;-87
2022/05/28 03:20:59;;;;;;;65.35;39.90;;;;;;;19.38;84.37;100417.78;4994185;28;20519;-87
2022/05/28 03:23:25;;;;;;;54.45;36.75;;;;;;;19.27;82.68;100391.81;4994418;28;20026;-87
2022/05/28 03:25:50;;;;;;;50.45;35.33;;;;;;;19.36;81.73;100407.06;4992858;28;20381;-87
2022/05/28 03:28:16;;;;;;;51.70;36.50;;;;;;;19.37;81.48;100408.75;4994078;28;20045;-87
2022/05/28 03:30:41;;;;;;;52.83;37.88;;;;;;;19.37;81.46;100400.56;4994338;28;20117;-87
2022/05/28 03:33:07;;;;;;;59.05;38.78;;;;;;;19.44;81.34;100404.28;4994660;28;20022;-88
2022/05/28 03:35:33;;;;;;;64.68;43.80;;;;;;;19.44;81.56;100393.38;4994441;28;20042;-87
2022/05/28 03:37:59;;;;;;;68.82;45.22;;;;;;;19.43;81.71;100394.41;4994399;28;20444;-87
2022/05/28 03:40:24;;;;;;;75.47;44.13;;;;;;;19.49;82.05;100385.47;4994903;28;20041;-86
2022/05/28 03:42:50;;;;;;;77.05;47.53;;;;;;;19.59;82.34;100400.72;4994461;28;20038;-87
2022/05/28 03:45:15;;;;;;;71.90;47.05;;;;;;;19.61;82.61;100398.63;4976778;28;20034;-88
2022/05/28 03:47:41;;;;;;;83.57;47.10;;;;;;;19.59;82.58;100392.53;4995675;28;20564;-87
2022/05/28 03:50:06;;;;;;;72.57;46.78;;;;;;;19.61;83.12;100387.72;4996264;28;20042;-87
2022/05/28 03:52:32;;;;;;;81.30;46.33;;;;;;;19.59;83.22;100367.97;4995325;28;20106;-87
2022/05/28 03:54:57;;;;;;;70.53;44.03;;;;;;;19.68;82.85;100385.94;4977893;28;20049;-87
2022/05/28 03:57:26;;;;;;;72.68;47.53;;;;;;;19.72;82.89;100381.78;4995475;28;20050;-87
2022/05/28 03:59:52;;;;;;;75.28;47.88;;;;;;;19.71;83.20;100382.81;4996319;28;20460;-87
2022/05/28 04:02:17;;;;;;;71.30;47.67;;;;;;;19.64;83.19;100379.16;4995631;28;20132;-87
2022/05/28 04:04:44;;;;;;;76.00;49.28;;;;;;;19.70;83.24;100386.56;4995098;28;20575;-88
2022/05/28 04:07:11;;;;;;;78.38;47.22;;;;;;;19.70;83.13;100386.56;4995576;28;20022;-88
2022/05/28 04:09:37;;;;;;;84.32;50.33;;;;;;;19.73;83.08;100397.09;4995030;28;20078;-87
2022/05/28 04:12:03;;;;;;;82.00;50.30;;;;;;;19.69;82.96;100384.91;4995544;28;20412;-87
2022/05/28 04:14:28;;;;;;;85.55;51.08;;;;;;;19.82;83.23;100401.44;4994737;28;20143;-87
2022/05/28 04:16:53;;;;;;;78.43;50.60;;;;;;;19.77;83.36;100404.75;4994697;28;20081;-87
2022/05/28 04:19:20;;;;;;;75.75;48.53;;;;;;;19.67;83.66;100386.97;4994889;28;20026;-87
2022/05/28 04:21:46;;;;;;;82.20;51.45;;;;;;;19.74;83.76;100396.94;4994646;28;20033;-87
2022/05/28 04:24:11;;;;;;;83.65;50.88;;;;;;;19.79;83.36;100401.81;4995395;28;20018;-88
2022/05/28 04:26:37;;;;;;;78.47;49.40;;;;;;;19.86;83.47;100416.41;4994681;28;20468;-87
2022/05/28 04:29:04;;;;;;;86.53;49.85;;;;;;;19.76;83.19;100392.13;4998551;28;20104;-86
2022/05/28 04:31:29;;;;;;;74.80;46.25;;;;;;;19.93;82.89;100409.16;4981323;28;20476;-87
2022/05/28 04:33:55;;;;;;;77.28;47.28;;;;;;;19.85;82.86;100395.59;4980989;28;20153;-86
2022/05/28 04:36:21;;;;;;;78.18;47.78;;;;;;;19.89;82.47;100391.44;4998292;28;20033;-87
2022/05/28 04:38:46;;;;;;;88.97;49.92;;;;;;;19.86;82.53;100400.03;4998581;28;20125;-87
2022/05/28 04:41:12;;;;;;;86.68;52.08;;;;;;;19.86;83.19;100419.97;4981251;28;20030;-87
2022/05/28 04:43:38;;;;;;;81.85;51.05;;;;;;;19.71;83.90;100404.66;4998667;28;20030;-87
2022/05/28 04:46:04;;;;;;;87.60;53.22;;;;;;;19.65;84.14;100405.41;4980716;28;20091;-87
2022/05/28 04:48:30;;;;;;;80.85;50.88;;;;;;;19.85;84.00;100428.34;4998579;28;20105;-87
2022/05/28 04:50:55;;;;;;;82.57;52.63;;;;;;;19.77;84.00;100425.72;4998809;28;20030;-87
2022/05/28 04:53:21;;;;;;;87.88;51.92;;;;;;;19.83;84.04;100433.16;4997472;28;20546;-87
2022/05/28 04:55:46;;;;;;;76.68;47.90;;;;;;;19.65;83.92;100421.78;4997931;28;20469;-87
2022/05/28 04:58:12;;;;;;;80.15;47.75;;;;;;;19.83;84.42;100444.06;4998034;28;20018;-87
2022/05/28 05:00:39;;;;;;;79.25;46.33;;;;;;;19.90;83.62;100445.03;4997483;28;20023;-87
2022/05/28 05:03:05;;;;;;;74.65;43.80;;;;;;;19.80;83.74;100430.81;4997672;28;20030;-87
2022/05/28 05:05:30;;;;;;;61.85;41.08;;;;;;;19.78;83.57;100432.88;4979763;28;20069;-87
2022/05/28 05:07:56;;;;;;;70.15;40.55;;;;;;;19.81;83.81;100446.16;4980239;28;20081;-87
2022/05/28 05:10:21;;;;;;;65.28;40.60;;;;;;;19.77;83.80;100426.59;4997656;28;20109;-87
2022/05/28 05:12:47;;;;;;;63.40;40.22;;;;;;;19.91;83.41;100433.91;4979848;28;20508;-87
2022/05/28 05:15:13;;;;;;;69.35;39.17;;;;;;;19.98;83.06;100429.38;4997282;28;20100;-87
2022/05/28 05:17:39;;;;;;;65.82;40.38;;;;;;;20.04;83.02;100444.16;4997413;28;20030;-87
2022/05/28 05:20:06;;;;;;;63.80;41.80;;;;;;;20.10;82.92;100443.38;4997699;28;20106;-86
2022/05/28 05:22:31;;;;;;;63.50;39.90;;;;;;;20.18;83.04;100446.03;4996790;28;20034;-87
2022/05/28 05:24:58;;;;;;;68.15;42.28;;;;;;;20.19;82.63;100423.13;4997938;28;20481;-87
2022/05/28 05:27:23;;;;;;;70.55;39.90;;;;;;;20.37;82.32;100434.50;4979596;28;20050;-88
2022/05/28 05:29:48;;;;;;;61.35;37.90;;;;;;;20.48;81.90;100438.63;4997438;28;20025;-89
2022/05/28 05:32:14;;;;;;;55.17;36.90;;;;;;;20.56;81.61;100433.88;4980825;28;20022;-87
2022/05/28 05:34:42;;;;;;;51.83;36.45;;;;;;;20.68;81.14;100436.94;4998041;28;20018;-88
2022/05/28 05:37:08;;;;;;;56.58;35.63;;;;;;;20.75;80.79;100431.53;4997092;28;20057;-87
2022/05/28 05:39:33;;;;;;;68.22;36.20;;;;;;;20.86;80.50;100440.06;4975386;28;20137;-88
2022/05/28 05:41:59;;;;;;;61.80;34.78;;;;;;;20.99;79.93;100429.25;4976175;28;20042;-86
2022/05/28 05:44:24;;;;;;;61.72;34.63;;;;;;;21.07;79.70;100420.06;4976215;28;20035;-87
2022/05/28 05:46:50;;;;;;;51.25;34.55;;;;;;;21.20;79.12;100422.09;4976286;28;20484;-86
2022/05/28 05:49:15;;;;;;;55.17;33.30;;;;;;;21.25;78.51;100423.22;4977937;28;20054;-86
2022/05/28 05:51:44;;;;;;;57.03;36.08;;;;;;;21.36;78.05;100425.38;4977457;28;20049;-87
2022/05/28 05:54:10;;;;;;;50.08;31.35;;;;;;;21.45;77.44;100429.66;4977211;28;20023;-87
2022/05/28 05:56:35;;;;;;;43.40;29.52;;;;;;;21.53;76.69;100429.50;4976959;28;20111;-86
2022/05/28 05:59:01;;;;;;;39.42;28.52;;;;;;;21.50;76.21;100420.84;4976522;28;20062;-87
2022/05/28 06:01:26;;;;;;;47.65;31.83;;;;;;;21.55;75.95;100415.63;4977029;28;20102;-87
2022/05/28 06:03:52;;;;;;;42.67;28.30;;;;;;;21.65;76.00;100430.63;4975398;28;20077;-87
2022/05/28 06:06:19;;;;;;;44.22;30.58;;;;;;;21.68;75.42;100407.47;4977186;28;20033;-87
2022/05/28 06:08:45;;;;;;;69.60;35.67;;;;;;;21.73;75.02;100412.34;4976833;28;20106;-87
2022/05/28 06:11:10;;;;;;;48.53;31.33;;;;;;;21.71;74.95;100415.31;4977308;28;20030;-87
2022/05/28 06:13:36;;;;;;;44.80;26.67;;;;;;;21.84;74.15;100407.13;4976809;28;20085;-86
2022/05/28 06:16:02;;;;;;;33.42;26.02;;;;;;;21.85;73.99;100394.31;4980244;28;20023;-87
2022/05/28 06:18:29;;;;;;;34.47;25.67;;;;;;;21.93;73.62;100383.19;4983808;28;20161;-87
2022/05/28 06:20:55;;;;;;;38.95;24.63;;;;;;;22.06;72.98;100394.22;4982212;28;20042;-86
2022/05/28 06:23:20;;;;;;;33.70;23.60;;;;;;;22.16;72.45;100380.97;4981898;28;20146;-87
2022/05/28 06:25:46;;;;;;;26.05;21.38;;;;;;;22.27;72.33;100383.13;4985799;28;20070;-87
2022/05/28 06:28:12;;;;;;;26.60;19.95;;;;;;;22.32;71.32;100375.13;4987554;28;20052;-87
2022/05/28 06:30:39;;;;;;;26.25;18.45;;;;;;;22.40;69.89;100377.69;4986344;28;20023;-87
2022/05/28 06:33:05;;;;;;;27.33;18.27;;;;;;;22.45;69.32;100372.41;4986432;28;20057;-87
2022/05/28 06:35:31;;;;;;;32.30;19.58;;;;;;;22.54;68.76;100376.63;4978288;28;20489;-87
2022/05/28 06:37:56;;;;;;;44.72;20.58;;;;;;;22.61;68.76;100382.13;4978262;28;20034;-87
2022/05/28 06:40:22;;;;;;;25.73;19.95;;;;;;;22.63;67.94;100375.38;4995562;28;20034;-87
2022/05/28 06:42:49;;;;;;;43.55;22.88;;;;;;;22.68;68.40;100372.91;4995168;28;20073;-87
2022/05/28 06:45:15;;;;;;;35.15;21.50;;;;;;;22.75;67.63;100371.00;4995449;28;20057;-87
2022/05/28 06:47:45;;;;;;;33.92;21.83;;;;;;;22.93;67.42;100375.03;4994772;28;20488;-87
2022/05/28 06:52:58;;;;;;;26.27;18.13;;;;;;;23.11;66.01;100367.00;4995168;28;20096;-87
2022/05/28 06:55:24;;;;;;;22.95;17.00;;;;;;;23.17;65.22;100363.41;4994899;28;20473;-87
2022/05/28 06:57:50;;;;;;;28.73;17.25;;;;;;;23.23;63.92;100354.31;4994962;28;20026;-87
2022/05/28 07:00:17;;;;;;;24.90;16.80;;;;;;;23.26;63.56;100364.88;4995275;28;20088;-87
2022/05/28 07:02:43;;;;;;;21.70;16.80;;;;;;;23.36;63.95;100357.06;4994662;28;20037;-87
2022/05/28 07:05:11;;;;;;;25.67;17.73;;;;;;;23.55;63.57;100358.91;4994221;28;20200;-87
2022/05/28 07:07:36;;;;;;;26.58;18.50;;;;;;;23.63;62.96;100353.22;4994620;28;20121;-87
2022/05/28 07:10:02;;;;;;;19.00;14.85;;;;;;;23.73;62.17;100341.75;4994724;28;20040;-87
2022/05/28 07:12:27;;;;;;;19.40;15.63;;;;;;;23.85;62.18;100346.34;4995066;28;20033;-88
2022/05/28 07:14:53;;;;;;;20.83;15.25;;;;;;;24.01;61.37;100342.25;4994522;28;20614;-87
2022/05/28 07:17:18;;;;;;;23.77;14.80;;;;;;;24.09;60.98;100332.94;4976654;28;20033;-87
2022/05/28 07:19:43;;;;;;;38.28;15.25;;;;;;;24.31;60.20;100342.56;4994532;28;20041;-88
2022/05/28 07:22:09;;;;;;;32.28;15.45;;;;;;;24.53;60.28;100352.13;4994313;28;20021;-87
2022/05/28 07:24:34;;;;;;;14.25;11.15;;;;;;;24.52;59.57;100335.88;4995290;28;20109;-86
2022/05/28 07:27:00;;;;;;;23.23;13.07;;;;;;;24.64;58.82;100337.69;4994488;28;20022;-87
2022/05/28 07:29:26;;;;;;;23.10;12.98;;;;;;;24.82;58.82;100345.19;4995683;28;20057;-88
2022/05/28 07:31:51;;;;;;;22.77;12.52;;;;;;;24.94;58.36;100328.78;4997503;28;20049;-87
2022/05/28 07:34:16;;;;;;;17.00;12.45;;;;;;;25.03;57.92;100352.19;4963917;28;20034;-86
2022/05/28 07:36:42;;;;;;;26.83;11.68;;;;;;;25.17;57.90;100337.22;4978484;28;20018;-88
2022/05/28 07:39:08;;;;;;;19.95;11.48;;;;;;;25.21;57.82;100320.06;4996304;28;20515;-87
2022/05/28 07:41:35;;;;;;;15.25;10.07;;;;;;;25.35;56.95;100318.84;4996189;28;20030;-88
2022/05/28 07:44:01;;;;;;;39.10;24.42;;;;;;;25.46;59.97;100325.50;4996351;28;20102;-87
2022/05/28 07:46:31;;;;;;;48.22;29.70;;;;;;;25.51;62.02;100344.13;4983470;28;20026;-87
2022/05/28 07:48:58;;;;;;;50.97;31.70;;;;;;;25.24;63.23;100335.28;4981580;28;20116;-88
2022/05/28 07:51:23;;;;;;;51.05;31.90;;;;;;;25.16;64.06;100354.84;4995961;28;20102;-87
2022/05/28 07:53:49;;;;;;;62.83;31.77;;;;;;;24.90;65.08;100354.00;4995483;28;20515;-87
2022/05/28 07:56:15;;;;;;;46.72;33.03;;;;;;;24.55;66.29;100358.28;4994974;28;20023;-88
2022/05/28 07:58:41;;;;;;;43.20;28.42;;;;;;;24.23;67.57;100362.06;4995427;28;20037;-88
2022/05/28 08:01:07;;;;;;;37.72;27.92;;;;;;;24.16;68.53;100361.25;4993891;28;20436;-88
2022/05/28 08:03:34;;;;;;;39.03;28.58;;;;;;;24.00;69.45;100348.00;4994478;28;20369;-87
2022/05/28 08:06:01;;;;;;;41.28;28.15;;;;;;;23.70;70.36;100355.91;4994420;28;20161;-87
2022/05/28 08:08:28;;;;;;;41.38;28.27;;;;;;;23.54;71.31;100349.03;4994218;28;20022;-88
2022/05/28 08:10:54;;;;;;;36.40;28.27;;;;;;;23.64;71.95;100346.63;4993937;28;20104;-88
2022/05/28 08:13:22;;;;;;;49.22;28.73;;;;;;;23.69;71.56;100335.88;4994227;28;20054;-87
2022/05/28 08:15:50;;;;;;;42.97;29.98;;;;;;;23.93;70.84;100342.53;4994337;28;20144;-88
2022/05/28 08:18:18;;;;;;;33.47;27.63;;;;;;;24.05;70.75;100342.69;4993869;28;20026;-88
2022/05/28 08:23:28;;;;;;;40.47;30.15;;;;;;;24.07;70.13;100343.28;4994411;28;20547;-87
2022/05/28 08:25:53;;;;;;;41.63;29.00;;;;;;;24.11;68.93;100337.19;4994744;28;20026;-88
2022/05/28 08:28:20;;;;;;;50.13;27.38;;;;;;;24.15;69.50;100348.59;4994699;28;20019;-87
2022/05/28 08:30:46;;;;;;;40.83;27.00;;;;;;;24.03;69.42;100333.81;4998396;28;20034;-87
2022/05/28 08:33:15;;;;;;;42.47;27.15;;;;;;;24.11;69.49;100345.44;4994456;28;20031;-88
2022/05/28 08:35:42;;;;;;;39.38;25.85;;;;;;;23.96;69.82;100349.47;4994632;28;20015;-88
2022/05/28 08:38:10;;;;;;;32.50;26.05;;;;;;;23.96;70.13;100349.47;4993569;28;20054;-87
2022/05/28 08:41:02;;;;;;;41.42;27.75;;;;;;;23.91;69.99;100347.41;4994340;28;20042;-87
2022/05/28 08:43:33;;;;;;;37.45;26.98;;;;;;;24.08;68.86;100353.22;4973597;28;20058;-89
2022/05/28 08:45:59;;;;;;;34.67;25.88;;;;;;;24.07;68.94;100354.28;4996136;28;20061;-88
2022/05/28 08:48:44;;;;;;;32.63;24.45;;;;;;;23.99;69.03;100349.03;4995148;28;20034;-87
2022/05/28 08:51:23;;;;;;;35.28;22.50;;;;;;;23.97;69.28;100345.69;4994431;28;20038;-89
2022/05/28 08:54:01;;;;;;;30.83;22.02;;;;;;;24.10;68.28;100351.09;4994164;28;20034;-87
2022/05/28 08:56:27;;;;;;;35.80;21.85;;;;;;;23.97;68.86;100342.94;4993918;28;20026;-87
2022/05/28 08:59:06;;;;;;;28.02;20.90;;;;;;;23.76;68.89;100355.03;4993881;28;20026;-88
2022/05/28 09:01:35;;;;;;;23.65;18.63;;;;;;;23.60;69.48;100350.06;4994187;28;20111;-88
2022/05/28 09:04:09;;;;;;;22.27;18.13;;;;;;;23.49;68.96;100348.81;4994082;28;20134;-87
2022/05/28 09:06:43;;;;;;;24.25;18.63;;;;;;;23.34;70.00;100350.91;4993711;28;20473;-88
2022/05/28 09:09:12;;;;;;;26.10;18.10;;;;;;;23.19;71.31;100358.53;4997594;28;20026;-86
2022/05/28 09:11:49;;;;;;;21.42;19.13;;;;;;;23.27;71.40;100336.38;4994337;28;20053;-88
2022/05/28 09:14:28;;;;;;;18.60;16.65;;;;;;;23.44;71.16;100340.38;4999062;28;20027;-88
2022/05/28 09:16:57;;;;;;;17.73;15.20;;;;;;;23.30;69.81;100344.19;4997901;28;20045;-87
2022/05/28 09:19:44;;;;;;;23.42;15.95;;;;;;;23.38;69.21;100349.44;4997357;28;20034;-89
2022/05/28 09:22:10;;;;;;;15.95;14.32;;;;;;;23.53;69.67;100349.22;4997519;28;20030;-87
2022/05/28 09:24:36;;;;;;;22.58;14.95;;;;;;;23.68;69.05;100341.56;4997404;28;20037;-88
2022/05/28 09:27:23;;;;;;;21.38;15.35;;;;;;;23.97;68.48;100341.03;4980267;28;20030;-88
2022/05/28 09:30:07;;;;;;;17.88;13.77;;;;;;;24.12;67.57;100338.88;4997238;28;20511;-88
2022/05/28 09:33:07;;;;;;;24.65;15.55;;;;;;;24.21;66.56;100342.22;4997639;28;20031;-88
2022/05/28 09:36:01;;;;;;;16.70;14.15;;;;;;;24.47;65.73;100349.44;4997362;28;20030;-88
2022/05/28 09:39:06;;;;;;;30.17;18.67;;;;;;;24.47;65.26;100330.19;4997867;28;20073;-87
2022/05/28 09:41:42;;;;;;;19.88;15.82;;;;;;;24.23;65.47;100345.56;4976848;28;20046;-88
2022/05/28 09:44:52;;;;;;;27.20;16.65;;;;;;;23.86;66.98;100336.22;4997017;28;20031;-88
2022/05/28 09:47:18;;;;;;;22.67;16.38;;;;;;;23.98;67.25;100330.88;4997092;28;20027;-87
2022/05/28 09:49:55;;;;;;;21.95;18.25;;;;;;;23.71;67.16;100336.50;4996849;28;20384;-88
2022/05/28 09:54:16;;;;;;;23.63;20.02;;;;;;;23.60;67.33;100339.06;4996333;28;20408;-88
2022/05/28 09:55:21;;;;;;;23.05;20.35;;;;;;;23.54;67.79;100339.94;4997278;28;20089;-86
2022/05/28 09:58:02;;;;;;;32.65;23.50;;;;;;;23.60;67.88;100361.88;4997378;28;20100;-86
2022/05/28 10:00:28;;;;;;;30.00;22.95;;;;;;;23.66;67.71;100351.94;4979849;28;20026;-87
2022/05/28 10:05:53;;;;;;;29.67;24.92;;;;;;;23.12;69.87;100346.72;4996937;28;20036;-87
2022/05/28 10:08:18;;;;;;;34.85;26.05;;;;;;;23.18;70.20;100352.22;4978383;28;20030;-86
2022/05/28 10:10:53;;;;;;;31.25;23.65;;;;;;;23.37;70.09;100355.97;4996020;28;20582;-87
2022/05/28 10:13:23;;;;;;;38.50;25.27;;;;;;;23.30;69.89;100357.91;4979132;28;20068;-86
2022/05/28 10:15:59;;;;;;;28.33;22.38;;;;;;;23.08;70.06;100345.47;4978600;28;20015;-88
2022/05/28 10:18:36;;;;;;;33.00;24.90;;;;;;;23.10;70.90;100348.84;4995265;28;20027;-88
2022/05/28 10:21:31;;;;;;;36.03;24.15;;;;;;;23.21;70.68;100345.44;5001139;28;20010;-89
2022/05/28 10:24:59;;;;;;;31.85;25.25;;;;;;;23.12;70.47;100335.75;5013595;28;20106;-89
2022/05/28 10:28:24;;;;;;;32.33;23.27;;;;;;;23.37;70.18;100334.03;4962635;28;20027;-88
2022/05/28 10:31:40;;;;;;;32.75;21.92;;;;;;;23.56;69.17;100335.91;4996743;28;20027;-88
2022/05/28 10:34:38;;;;;;;37.97;24.30;;;;;;;23.59;67.90;100286.06;4993655;28;20023;-88
2022/05/28 10:37:23;;;;;;;29.20;21.80;;;;;;;23.75;67.71;100329.50;4978264;28;20038;-90
2022/05/28 10:40:22;;;;;;;31.58;23.15;;;;;;;23.90;67.06;100318.25;4979222;28;20038;-88
2022/05/28 10:43:08;;;;;;;35.38;23.92;;;;;;;23.90;67.28;100306.41;4996700;28;20055;-89
2022/05/28 10:45:58;;;;;;;43.20;28.75;;;;;;;24.12;67.25;100316.91;4990438;28;21907;-87
2022/05/28 10:48:34;;;;;;;31.60;24.13;;;;;;;24.48;66.20;100326.38;4975922;28;20043;-87
2022/05/28 10:51:15;;;;;;;33.45;25.52;;;;;;;24.53;65.66;100327.38;4975394;28;20074;-86
2022/05/28 10:54:09;;;;;;;38.67;27.27;;;;;;;24.56;65.54;100307.69;4958787;28;20501;-86
2022/05/28 10:56:49;;;;;;;27.27;23.73;;;;;;;24.86;64.46;100314.25;4974206;28;20504;-86
2022/05/28 10:59:22;;;;;;;32.15;25.90;;;;;;;25.08;63.51;100316.56;4974456;28;20555;-88
2022/05/28 11:02:05;;;;;;;26.85;23.25;;;;;;;25.01;62.29;100315.81;4958881;28;20031;-86
2022/05/28 11:04:58;;;;;;;26.77;22.92;;;;;;;25.13;62.27;100314.00;4962362;28;20146;-88
2022/05/28 11:08:12;;;;;;;32.58;23.65;;;;;;;25.03;62.28;100302.66;4965221;28;20031;-87
2022/05/28 11:10:38;;;;;;;32.60;23.58;;;;;;;25.18;61.68;100297.63;4959112;28;20077;-88
2022/05/28 11:13:15;;;;;;;25.63;22.65;;;;;;;25.27;61.24;100304.53;4977860;28;20034;-87
2022/05/28 11:15:50;;;;;;;25.85;21.60;;;;;;;25.35;60.12;100312.50;4978741;28;20030;-86
2022/05/28 11:18:35;;;;;;;27.38;21.73;;;;;;;25.63;59.91;100310.06;4979193;28;20106;-86
2022/05/28 11:21:57;;;;;;;32.45;23.90;;;;;;;25.67;59.96;100300.28;4981324;28;20023;-87
2022/05/28 11:24:48;;;;;;;31.45;23.98;;;;;;;25.62;61.14;100305.66;4952328;28;20031;-85
2022/05/28 11:28:06;;;;;;;27.48;21.63;;;;;;;25.53;61.12;100309.78;4994040;28;20050;-87
2022/05/28 11:33:22;;;;;;;26.02;21.15;;;;;;;25.37;61.93;100296.59;4978776;28;20540;-88
2022/05/28 11:35:55;;;;;;;28.30;21.95;;;;;;;25.34;61.95;100289.63;4978468;28;20034;-87
2022/05/28 11:38:42;;;;;;;25.90;21.23;;;;;;;25.38;60.85;100279.00;4978226;28;20477;-87
2022/05/28 11:44:28;;;;;;;30.38;21.30;;;;;;;25.57;61.00;100272.44;5169264;23;20057;-87